sensor_id;sensor_type;location;lat;lon;timestamp;P1;durP1;ratioP1;P2;durP2;ratioP2
53483;SDS011;75581;50.088;19.966;2024-03-06T00:01:23;60.30;;;33.50;;
53483;SDS011;75581;50.088;19.966;2024-03-06T00:03:52;57.90;;;31.60;;
53483;SDS011;75581;50.088;19.966;2024-03-06T00:06:22;62.30;;;33.40;;
53483;SDS011;75581;50.088;19.966;2024-03-06T00:08:53;60.70;;;33.10;;
53483;SDS011;75581;50.088;19.966;2024-03-06T00:11:21;59.50;;;32.90;;
53483;SDS011;75581;50.088;19.966;2024-03-06T00:13:50;65.20;;;33.60;;
53483;SDS011;75581;50.088;19.966;2024-03-06T00:16:20;68.70;;;35.50;;
53483;SDS011;75581;50.088;19.966;2024-03-06T00:18:49;64.30;;;34.90;;
53483;SDS011;75581;50.088;19.966;2024-03-06T00:21:18;65.60;;;34.90;;
53483;SDS011;75581;50.088;19.966;2024-03-06T00:23:47;67.80;;;35.30;;
53483;SDS011;75581;50.088;19.966;2024-03-06T00:26:16;73.10;;;36.70;;
53483;SDS011;75581;50.088;19.966;2024-03-06T00:28:45;63.50;;;35.40;;
53483;SDS011;75581;50.088;19.966;2024-03-06T00:31:14;62.70;;;33.80;;
53483;SDS011;75581;50.088;19.966;2024-03-06T00:33:43;59.90;;;32.00;;
53483;SDS011;75581;50.088;19.966;2024-03-06T00:36:12;59.30;;;33.40;;
53483;SDS011;75581;50.088;19.966;2024-03-06T00:38:41;63.40;;;33.90;;
53483;SDS011;75581;50.088;19.966;2024-03-06T00:41:11;68.70;;;34.40;;
53483;SDS011;75581;50.088;19.966;2024-03-06T00:43:40;64.40;;;34.20;;
53483;SDS011;75581;50.088;19.966;2024-03-06T00:46:09;63.30;;;32.60;;
53483;SDS011;75581;50.088;19.966;2024-03-06T00:48:38;68.90;;;36.00;;
53483;SDS011;75581;50.088;19.966;2024-03-06T00:51:09;74.70;;;37.00;;
53483;SDS011;75581;50.088;19.966;2024-03-06T00:53:38;71.40;;;36.80;;
53483;SDS011;75581;50.088;19.966;2024-03-06T00:56:07;72.20;;;37.10;;
53483;SDS011;75581;50.088;19.966;2024-03-06T00:58:36;69.30;;;36.30;;
53483;SDS011;75581;50.088;19.966;2024-03-06T01:01:05;66.20;;;34.20;;
53483;SDS011;75581;50.088;19.966;2024-03-06T01:03:34;60.60;;;33.40;;
53483;SDS011;75581;50.088;19.966;2024-03-06T01:06:03;67.60;;;35.50;;
53483;SDS011;75581;50.088;19.966;2024-03-06T01:08:33;65.20;;;34.70;;
53483;SDS011;75581;50.088;19.966;2024-03-06T01:11:02;65.00;;;34.40;;
53483;SDS011;75581;50.088;19.966;2024-03-06T01:13:33;65.80;;;35.20;;
53483;SDS011;75581;50.088;19.966;2024-03-06T01:16:02;63.00;;;33.60;;
53483;SDS011;75581;50.088;19.966;2024-03-06T01:18:31;64.20;;;32.90;;
53483;SDS011;75581;50.088;19.966;2024-03-06T01:21:00;58.40;;;30.50;;
53483;SDS011;75581;50.088;19.966;2024-03-06T01:23:29;62.40;;;33.00;;
53483;SDS011;75581;50.088;19.966;2024-03-06T01:25:58;62.20;;;31.30;;
53483;SDS011;75581;50.088;19.966;2024-03-06T01:28:28;62.90;;;32.00;;
53483;SDS011;75581;50.088;19.966;2024-03-06T01:30:58;62.70;;;31.90;;
53483;SDS011;75581;50.088;19.966;2024-03-06T01:33:27;60.20;;;31.50;;
53483;SDS011;75581;50.088;19.966;2024-03-06T01:35:56;56.30;;;30.10;;
53483;SDS011;75581;50.088;19.966;2024-03-06T01:38:24;54.60;;;28.70;;
53483;SDS011;75581;50.088;19.966;2024-03-06T01:40:54;54.60;;;29.70;;
53483;SDS011;75581;50.088;19.966;2024-03-06T01:43:24;51.20;;;27.80;;
53483;SDS011;75581;50.088;19.966;2024-03-06T01:45:54;50.50;;;27.50;;
53483;SDS011;75581;50.088;19.966;2024-03-06T01:48:23;53.30;;;28.30;;
53483;SDS011;75581;50.088;19.966;2024-03-06T01:50:55;52.40;;;27.90;;
53483;SDS011;75581;50.088;19.966;2024-03-06T01:53:27;46.90;;;26.70;;
53483;SDS011;75581;50.088;19.966;2024-03-06T01:55:58;45.80;;;24.70;;
53483;SDS011;75581;50.088;19.966;2024-03-06T01:58:28;49.30;;;26.70;;
53483;SDS011;75581;50.088;19.966;2024-03-06T02:00:57;49.30;;;27.10;;
53483;SDS011;75581;50.088;19.966;2024-03-06T02:03:26;50.80;;;27.20;;
53483;SDS011;75581;50.088;19.966;2024-03-06T02:05:55;51.60;;;26.90;;
53483;SDS011;75581;50.088;19.966;2024-03-06T02:08:27;52.50;;;26.70;;
53483;SDS011;75581;50.088;19.966;2024-03-06T02:10:56;46.90;;;25.00;;
53483;SDS011;75581;50.088;19.966;2024-03-06T02:13:24;48.10;;;25.60;;
53483;SDS011;75581;50.088;19.966;2024-03-06T02:15:53;48.70;;;26.10;;
53483;SDS011;75581;50.088;19.966;2024-03-06T02:18:23;44.50;;;23.50;;
53483;SDS011;75581;50.088;19.966;2024-03-06T02:20:52;49.50;;;26.50;;
53483;SDS011;75581;50.088;19.966;2024-03-06T02:23:21;54.60;;;28.10;;
53483;SDS011;75581;50.088;19.966;2024-03-06T02:25:50;50.10;;;26.90;;
53483;SDS011;75581;50.088;19.966;2024-03-06T02:28:20;49.10;;;25.90;;
53483;SDS011;75581;50.088;19.966;2024-03-06T02:30:51;48.60;;;25.40;;
53483;SDS011;75581;50.088;19.966;2024-03-06T02:33:20;54.40;;;28.10;;
53483;SDS011;75581;50.088;19.966;2024-03-06T02:35:49;49.70;;;27.20;;
53483;SDS011;75581;50.088;19.966;2024-03-06T02:38:18;49.00;;;25.70;;
53483;SDS011;75581;50.088;19.966;2024-03-06T02:40:47;50.70;;;26.90;;
53483;SDS011;75581;50.088;19.966;2024-03-06T02:43:16;48.30;;;25.90;;
53483;SDS011;75581;50.088;19.966;2024-03-06T02:45:45;44.70;;;24.50;;
53483;SDS011;75581;50.088;19.966;2024-03-06T02:48:14;46.60;;;25.00;;
53483;SDS011;75581;50.088;19.966;2024-03-06T02:50:43;49.00;;;24.90;;
53483;SDS011;75581;50.088;19.966;2024-03-06T02:53:12;45.10;;;24.10;;
53483;SDS011;75581;50.088;19.966;2024-03-06T02:55:42;47.50;;;26.60;;
53483;SDS011;75581;50.088;19.966;2024-03-06T02:58:11;46.70;;;24.80;;
53483;SDS011;75581;50.088;19.966;2024-03-06T03:00:40;45.70;;;24.60;;
53483;SDS011;75581;50.088;19.966;2024-03-06T03:03:10;44.90;;;24.30;;
53483;SDS011;75581;50.088;19.966;2024-03-06T03:05:42;47.20;;;25.10;;
53483;SDS011;75581;50.088;19.966;2024-03-06T03:08:11;45.90;;;24.40;;
53483;SDS011;75581;50.088;19.966;2024-03-06T03:10:41;44.70;;;24.80;;
53483;SDS011;75581;50.088;19.966;2024-03-06T03:13:10;40.10;;;23.10;;
53483;SDS011;75581;50.088;19.966;2024-03-06T03:15:39;45.20;;;25.10;;
53483;SDS011;75581;50.088;19.966;2024-03-06T03:18:09;49.70;;;26.00;;
53483;SDS011;75581;50.088;19.966;2024-03-06T03:20:38;48.40;;;25.00;;
53483;SDS011;75581;50.088;19.966;2024-03-06T03:23:07;44.10;;;25.20;;
53483;SDS011;75581;50.088;19.966;2024-03-06T03:25:40;45.20;;;23.50;;
53483;SDS011;75581;50.088;19.966;2024-03-06T03:28:10;42.50;;;23.90;;
53483;SDS011;75581;50.088;19.966;2024-03-06T03:30:39;48.30;;;25.40;;
53483;SDS011;75581;50.088;19.966;2024-03-06T03:33:08;48.50;;;23.90;;
53483;SDS011;75581;50.088;19.966;2024-03-06T03:35:37;45.60;;;24.40;;
53483;SDS011;75581;50.088;19.966;2024-03-06T03:38:06;47.50;;;25.00;;
53483;SDS011;75581;50.088;19.966;2024-03-06T03:40:35;43.80;;;24.20;;
53483;SDS011;75581;50.088;19.966;2024-03-06T03:43:04;43.40;;;23.70;;
53483;SDS011;75581;50.088;19.966;2024-03-06T03:45:35;45.20;;;24.10;;
53483;SDS011;75581;50.088;19.966;2024-03-06T03:48:04;39.10;;;21.60;;
53483;SDS011;75581;50.088;19.966;2024-03-06T03:50:34;44.00;;;23.90;;
53483;SDS011;75581;50.088;19.966;2024-03-06T03:53:03;44.30;;;23.30;;
53483;SDS011;75581;50.088;19.966;2024-03-06T03:55:32;43.00;;;23.90;;
53483;SDS011;75581;50.088;19.966;2024-03-06T03:58:02;39.70;;;22.10;;
53483;SDS011;75581;50.088;19.966;2024-03-06T04:00:31;42.90;;;22.50;;
53483;SDS011;75581;50.088;19.966;2024-03-06T04:03:00;45.80;;;24.50;;
53483;SDS011;75581;50.088;19.966;2024-03-06T04:05:30;45.70;;;23.50;;
53483;SDS011;75581;50.088;19.966;2024-03-06T04:08:00;43.50;;;22.90;;
53483;SDS011;75581;50.088;19.966;2024-03-06T04:10:29;44.90;;;23.90;;
53483;SDS011;75581;50.088;19.966;2024-03-06T04:12:58;41.70;;;22.60;;
53483;SDS011;75581;50.088;19.966;2024-03-06T04:15:28;45.60;;;23.30;;
53483;SDS011;75581;50.088;19.966;2024-03-06T04:17:57;40.30;;;21.80;;
53483;SDS011;75581;50.088;19.966;2024-03-06T04:20:26;44.90;;;24.00;;
53483;SDS011;75581;50.088;19.966;2024-03-06T04:22:55;44.80;;;23.70;;
53483;SDS011;75581;50.088;19.966;2024-03-06T04:25:25;44.10;;;22.70;;
53483;SDS011;75581;50.088;19.966;2024-03-06T04:27:54;44.40;;;23.20;;
53483;SDS011;75581;50.088;19.966;2024-03-06T04:30:23;46.30;;;23.80;;
53483;SDS011;75581;50.088;19.966;2024-03-06T04:32:53;46.80;;;23.70;;
53483;SDS011;75581;50.088;19.966;2024-03-06T04:35:22;45.60;;;22.70;;
53483;SDS011;75581;50.088;19.966;2024-03-06T04:37:51;46.60;;;23.40;;
53483;SDS011;75581;50.088;19.966;2024-03-06T04:40:20;46.50;;;23.40;;
53483;SDS011;75581;50.088;19.966;2024-03-06T04:42:51;43.30;;;23.60;;
53483;SDS011;75581;50.088;19.966;2024-03-06T04:45:21;44.90;;;23.40;;
53483;SDS011;75581;50.088;19.966;2024-03-06T04:47:50;40.90;;;22.80;;
53483;SDS011;75581;50.088;19.966;2024-03-06T04:50:19;44.40;;;23.10;;
53483;SDS011;75581;50.088;19.966;2024-03-06T04:52:49;46.30;;;24.20;;
53483;SDS011;75581;50.088;19.966;2024-03-06T04:55:18;41.10;;;22.10;;
53483;SDS011;75581;50.088;19.966;2024-03-06T04:57:52;44.70;;;23.20;;
53483;SDS011;75581;50.088;19.966;2024-03-06T05:00:24;41.20;;;22.30;;
53483;SDS011;75581;50.088;19.966;2024-03-06T05:02:53;44.40;;;23.30;;
53483;SDS011;75581;50.088;19.966;2024-03-06T05:05:41;43.20;;;22.80;;
53483;SDS011;75581;50.088;19.966;2024-03-06T05:08:27;44.70;;;23.10;;
53483;SDS011;75581;50.088;19.966;2024-03-06T05:11:15;47.20;;;24.00;;
53483;SDS011;75581;50.088;19.966;2024-03-06T05:14:01;44.00;;;23.00;;
53483;SDS011;75581;50.088;19.966;2024-03-06T05:16:48;45.80;;;23.50;;
53483;SDS011;75581;50.088;19.966;2024-03-06T05:19:34;43.30;;;22.90;;
53483;SDS011;75581;50.088;19.966;2024-03-06T05:22:20;50.20;;;23.90;;
53483;SDS011;75581;50.088;19.966;2024-03-06T05:25:07;44.90;;;22.60;;
53483;SDS011;75581;50.088;19.966;2024-03-06T05:28:06;43.90;;;22.10;;
53483;SDS011;75581;50.088;19.966;2024-03-06T05:30:52;42.40;;;23.00;;
53483;SDS011;75581;50.088;19.966;2024-03-06T05:33:39;45.20;;;23.50;;
53483;SDS011;75581;50.088;19.966;2024-03-06T05:36:25;46.20;;;23.60;;
53483;SDS011;75581;50.088;19.966;2024-03-06T05:39:11;46.80;;;23.50;;
53483;SDS011;75581;50.088;19.966;2024-03-06T05:42:01;46.40;;;24.20;;
53483;SDS011;75581;50.088;19.966;2024-03-06T05:44:49;45.50;;;22.90;;
53483;SDS011;75581;50.088;19.966;2024-03-06T05:47:36;44.90;;;23.50;;
53483;SDS011;75581;50.088;19.966;2024-03-06T05:53:09;43.50;;;22.70;;
53483;SDS011;75581;50.088;19.966;2024-03-06T05:55:56;43.40;;;23.20;;
53483;SDS011;75581;50.088;19.966;2024-03-06T05:58:43;44.10;;;23.70;;
53483;SDS011;75581;50.088;19.966;2024-03-06T06:01:17;43.90;;;22.20;;
53483;SDS011;75581;50.088;19.966;2024-03-06T06:03:50;45.90;;;23.60;;
53483;SDS011;75581;50.088;19.966;2024-03-06T06:06:19;44.50;;;22.80;;
53483;SDS011;75581;50.088;19.966;2024-03-06T06:08:48;39.40;;;22.60;;
53483;SDS011;75581;50.088;19.966;2024-03-06T06:11:17;36.20;;;21.20;;
53483;SDS011;75581;50.088;19.966;2024-03-06T06:13:46;38.30;;;21.50;;
53483;SDS011;75581;50.088;19.966;2024-03-06T06:16:15;38.10;;;21.10;;
53483;SDS011;75581;50.088;19.966;2024-03-06T06:18:44;35.90;;;19.40;;
53483;SDS011;75581;50.088;19.966;2024-03-06T06:21:12;39.20;;;20.30;;
53483;SDS011;75581;50.088;19.966;2024-03-06T06:23:42;35.50;;;20.40;;
53483;SDS011;75581;50.088;19.966;2024-03-06T06:26:11;41.20;;;20.60;;
53483;SDS011;75581;50.088;19.966;2024-03-06T06:28:42;37.30;;;21.60;;
53483;SDS011;75581;50.088;19.966;2024-03-06T06:31:10;39.20;;;22.60;;
53483;SDS011;75581;50.088;19.966;2024-03-06T06:33:39;42.30;;;22.50;;
53483;SDS011;75581;50.088;19.966;2024-03-06T06:36:08;36.40;;;20.40;;
53483;SDS011;75581;50.088;19.966;2024-03-06T06:38:37;36.70;;;20.40;;
53483;SDS011;75581;50.088;19.966;2024-03-06T06:41:06;34.70;;;19.30;;
53483;SDS011;75581;50.088;19.966;2024-03-06T06:43:36;40.60;;;21.50;;
53483;SDS011;75581;50.088;19.966;2024-03-06T06:46:04;35.70;;;20.60;;
53483;SDS011;75581;50.088;19.966;2024-03-06T06:48:34;37.40;;;20.80;;
53483;SDS011;75581;50.088;19.966;2024-03-06T06:51:03;38.10;;;20.60;;
53483;SDS011;75581;50.088;19.966;2024-03-06T06:53:32;44.80;;;22.70;;
53483;SDS011;75581;50.088;19.966;2024-03-06T06:56:01;42.10;;;22.90;;
53483;SDS011;75581;50.088;19.966;2024-03-06T06:58:30;39.50;;;22.80;;
53483;SDS011;75581;50.088;19.966;2024-03-06T07:00:59;39.00;;;21.50;;
53483;SDS011;75581;50.088;19.966;2024-03-06T07:03:28;39.00;;;22.40;;
53483;SDS011;75581;50.088;19.966;2024-03-06T07:05:58;38.60;;;21.70;;
53483;SDS011;75581;50.088;19.966;2024-03-06T07:08:27;40.30;;;22.30;;
53483;SDS011;75581;50.088;19.966;2024-03-06T07:10:57;42.70;;;22.80;;
53483;SDS011;75581;50.088;19.966;2024-03-06T07:13:26;42.00;;;24.10;;
53483;SDS011;75581;50.088;19.966;2024-03-06T07:15:55;45.00;;;23.30;;
53483;SDS011;75581;50.088;19.966;2024-03-06T07:18:24;48.00;;;24.10;;
53483;SDS011;75581;50.088;19.966;2024-03-06T07:20:53;38.50;;;21.40;;
53483;SDS011;75581;50.088;19.966;2024-03-06T07:23:23;36.70;;;21.90;;
53483;SDS011;75581;50.088;19.966;2024-03-06T07:25:52;43.60;;;23.30;;
53483;SDS011;75581;50.088;19.966;2024-03-06T07:28:21;42.10;;;22.50;;
53483;SDS011;75581;50.088;19.966;2024-03-06T07:30:50;41.00;;;22.90;;
53483;SDS011;75581;50.088;19.966;2024-03-06T07:33:19;42.30;;;23.30;;
53483;SDS011;75581;50.088;19.966;2024-03-06T07:35:48;43.60;;;23.80;;
53483;SDS011;75581;50.088;19.966;2024-03-06T07:38:17;41.10;;;23.30;;
53483;SDS011;75581;50.088;19.966;2024-03-06T07:40:46;45.00;;;25.30;;
53483;SDS011;75581;50.088;19.966;2024-03-06T07:43:15;43.80;;;24.40;;
53483;SDS011;75581;50.088;19.966;2024-03-06T07:45:44;46.50;;;23.80;;
53483;SDS011;75581;50.088;19.966;2024-03-06T07:48:13;45.30;;;23.40;;
53483;SDS011;75581;50.088;19.966;2024-03-06T07:50:42;43.00;;;23.70;;
53483;SDS011;75581;50.088;19.966;2024-03-06T07:53:12;39.90;;;22.30;;
53483;SDS011;75581;50.088;19.966;2024-03-06T07:55:40;42.70;;;23.90;;
53483;SDS011;75581;50.088;19.966;2024-03-06T07:58:08;45.90;;;23.60;;
53483;SDS011;75581;50.088;19.966;2024-03-06T08:10:15;40.80;;;23.40;;
53483;SDS011;75581;50.088;19.966;2024-03-06T08:12:45;38.60;;;22.20;;
53483;SDS011;75581;50.088;19.966;2024-03-06T08:15:16;41.90;;;23.50;;
53483;SDS011;75581;50.088;19.966;2024-03-06T08:21:06;44.00;;;24.30;;
53483;SDS011;75581;50.088;19.966;2024-03-06T08:23:34;44.90;;;23.40;;
53483;SDS011;75581;50.088;19.966;2024-03-06T08:26:03;40.60;;;22.20;;
53483;SDS011;75581;50.088;19.966;2024-03-06T08:28:31;47.50;;;24.80;;
53483;SDS011;75581;50.088;19.966;2024-03-06T08:30:59;40.70;;;22.80;;
53483;SDS011;75581;50.088;19.966;2024-03-06T08:33:28;45.60;;;23.00;;
53483;SDS011;75581;50.088;19.966;2024-03-06T08:35:56;42.80;;;24.20;;
53483;SDS011;75581;50.088;19.966;2024-03-06T08:38:25;45.30;;;23.20;;
53483;SDS011;75581;50.088;19.966;2024-03-06T08:40:53;41.50;;;22.70;;
53483;SDS011;75581;50.088;19.966;2024-03-06T08:43:22;37.90;;;22.80;;
53483;SDS011;75581;50.088;19.966;2024-03-06T08:45:50;43.40;;;23.70;;
53483;SDS011;75581;50.088;19.966;2024-03-06T08:48:20;40.80;;;23.10;;
53483;SDS011;75581;50.088;19.966;2024-03-06T08:50:49;42.40;;;24.00;;
53483;SDS011;75581;50.088;19.966;2024-03-06T08:53:18;43.90;;;23.90;;
53483;SDS011;75581;50.088;19.966;2024-03-06T08:55:47;41.30;;;23.40;;
53483;SDS011;75581;50.088;19.966;2024-03-06T08:58:15;39.70;;;22.60;;
53483;SDS011;75581;50.088;19.966;2024-03-06T09:00:43;41.00;;;23.10;;
53483;SDS011;75581;50.088;19.966;2024-03-06T09:03:11;43.50;;;23.90;;
53483;SDS011;75581;50.088;19.966;2024-03-06T09:05:39;50.00;;;24.50;;
53483;SDS011;75581;50.088;19.966;2024-03-06T09:08:10;44.60;;;24.70;;
53483;SDS011;75581;50.088;19.966;2024-03-06T09:10:39;47.40;;;25.10;;
53483;SDS011;75581;50.088;19.966;2024-03-06T09:13:08;45.70;;;24.10;;
53483;SDS011;75581;50.088;19.966;2024-03-06T09:15:36;41.90;;;23.90;;
53483;SDS011;75581;50.088;19.966;2024-03-06T09:18:04;40.00;;;23.00;;
53483;SDS011;75581;50.088;19.966;2024-03-06T09:20:32;45.40;;;24.70;;
53483;SDS011;75581;50.088;19.966;2024-03-06T09:23:00;43.70;;;23.60;;
53483;SDS011;75581;50.088;19.966;2024-03-06T09:25:28;46.60;;;25.10;;
53483;SDS011;75581;50.088;19.966;2024-03-06T09:27:57;44.00;;;24.40;;
53483;SDS011;75581;50.088;19.966;2024-03-06T09:30:24;42.20;;;23.70;;
53483;SDS011;75581;50.088;19.966;2024-03-06T09:32:53;47.90;;;25.80;;
53483;SDS011;75581;50.088;19.966;2024-03-06T09:35:21;47.20;;;26.20;;
53483;SDS011;75581;50.088;19.966;2024-03-06T09:37:49;43.20;;;24.70;;
53483;SDS011;75581;50.088;19.966;2024-03-06T09:40:21;48.30;;;26.30;;
53483;SDS011;75581;50.088;19.966;2024-03-06T09:42:50;43.80;;;24.90;;
53483;SDS011;75581;50.088;19.966;2024-03-06T09:45:19;43.90;;;24.50;;
53483;SDS011;75581;50.088;19.966;2024-03-06T09:47:47;43.10;;;24.90;;
53483;SDS011;75581;50.088;19.966;2024-03-06T09:50:30;43.60;;;25.00;;
53483;SDS011;75581;50.088;19.966;2024-03-06T09:53:05;46.40;;;25.60;;
53483;SDS011;75581;50.088;19.966;2024-03-06T09:55:35;50.30;;;26.00;;
53483;SDS011;75581;50.088;19.966;2024-03-06T09:58:03;47.80;;;25.90;;
53483;SDS011;75581;50.088;19.966;2024-03-06T10:05:20;47.10;;;26.40;;
53483;SDS011;75581;50.088;19.966;2024-03-06T10:07:50;47.60;;;25.70;;
53483;SDS011;75581;50.088;19.966;2024-03-06T10:10:19;45.00;;;26.60;;
53483;SDS011;75581;50.088;19.966;2024-03-06T10:12:50;47.50;;;26.40;;
53483;SDS011;75581;50.088;19.966;2024-03-06T10:15:18;53.80;;;28.10;;
53483;SDS011;75581;50.088;19.966;2024-03-06T10:17:46;54.60;;;28.80;;
53483;SDS011;75581;50.088;19.966;2024-03-06T10:20:21;50.00;;;25.90;;
53483;SDS011;75581;50.088;19.966;2024-03-06T10:22:51;46.20;;;25.90;;
53483;SDS011;75581;50.088;19.966;2024-03-06T10:25:25;47.50;;;26.50;;
53483;SDS011;75581;50.088;19.966;2024-03-06T10:30:40;51.70;;;27.40;;
53483;SDS011;75581;50.088;19.966;2024-03-06T10:35:42;46.40;;;25.80;;
53483;SDS011;75581;50.088;19.966;2024-03-06T10:38:12;46.00;;;24.90;;
53483;SDS011;75581;50.088;19.966;2024-03-06T10:40:42;45.20;;;25.00;;
53483;SDS011;75581;50.088;19.966;2024-03-06T10:43:11;47.10;;;24.70;;
53483;SDS011;75581;50.088;19.966;2024-03-06T10:48:24;47.70;;;26.40;;
53483;SDS011;75581;50.088;19.966;2024-03-06T10:50:55;43.90;;;25.10;;
53483;SDS011;75581;50.088;19.966;2024-03-06T10:53:25;44.50;;;24.60;;
53483;SDS011;75581;50.088;19.966;2024-03-06T10:55:56;48.00;;;27.10;;
53483;SDS011;75581;50.088;19.966;2024-03-06T10:58:26;47.90;;;26.10;;
53483;SDS011;75581;50.088;19.966;2024-03-06T11:00:57;47.60;;;26.30;;
53483;SDS011;75581;50.088;19.966;2024-03-06T11:03:25;46.00;;;24.70;;
53483;SDS011;75581;50.088;19.966;2024-03-06T11:05:55;44.30;;;25.10;;
53483;SDS011;75581;50.088;19.966;2024-03-06T11:08:23;43.80;;;24.60;;
53483;SDS011;75581;50.088;19.966;2024-03-06T11:10:53;43.80;;;24.50;;
53483;SDS011;75581;50.088;19.966;2024-03-06T11:13:24;44.20;;;24.60;;
53483;SDS011;75581;50.088;19.966;2024-03-06T11:15:57;47.80;;;24.40;;
53483;SDS011;75581;50.088;19.966;2024-03-06T11:23:31;47.00;;;26.60;;
53483;SDS011;75581;50.088;19.966;2024-03-06T11:26:04;48.60;;;26.10;;
53483;SDS011;75581;50.088;19.966;2024-03-06T11:28:37;49.00;;;26.70;;
53483;SDS011;75581;50.088;19.966;2024-03-06T11:31:08;47.20;;;26.40;;
53483;SDS011;75581;50.088;19.966;2024-03-06T11:33:44;49.80;;;27.10;;
53483;SDS011;75581;50.088;19.966;2024-03-06T11:39:08;51.20;;;27.20;;
53483;SDS011;75581;50.088;19.966;2024-03-06T11:44:05;46.70;;;26.10;;
53483;SDS011;75581;50.088;19.966;2024-03-06T11:46:45;46.00;;;25.70;;
53483;SDS011;75581;50.088;19.966;2024-03-06T11:49:21;45.10;;;25.00;;
53483;SDS011;75581;50.088;19.966;2024-03-06T11:51:55;52.50;;;28.30;;
53483;SDS011;75581;50.088;19.966;2024-03-06T11:54:24;47.90;;;25.20;;
53483;SDS011;75581;50.088;19.966;2024-03-06T11:56:56;46.60;;;25.30;;
53483;SDS011;75581;50.088;19.966;2024-03-06T11:59:32;42.90;;;25.00;;
53483;SDS011;75581;50.088;19.966;2024-03-06T12:02:02;46.40;;;26.30;;
53483;SDS011;75581;50.088;19.966;2024-03-06T12:04:34;52.30;;;28.00;;
53483;SDS011;75581;50.088;19.966;2024-03-06T12:07:06;50.10;;;28.10;;
53483;SDS011;75581;50.088;19.966;2024-03-06T12:09:37;51.40;;;28.30;;
53483;SDS011;75581;50.088;19.966;2024-03-06T12:12:10;55.20;;;29.20;;
53483;SDS011;75581;50.088;19.966;2024-03-06T12:14:40;47.20;;;27.80;;
53483;SDS011;75581;50.088;19.966;2024-03-06T12:17:12;58.60;;;32.00;;
53483;SDS011;75581;50.088;19.966;2024-03-06T12:19:44;51.40;;;28.70;;
53483;SDS011;75581;50.088;19.966;2024-03-06T12:22:13;55.70;;;30.60;;
53483;SDS011;75581;50.088;19.966;2024-03-06T12:24:46;55.80;;;30.00;;
53483;SDS011;75581;50.088;19.966;2024-03-06T12:27:25;53.30;;;30.20;;
53483;SDS011;75581;50.088;19.966;2024-03-06T12:29:53;56.10;;;30.10;;
53483;SDS011;75581;50.088;19.966;2024-03-06T12:32:22;57.40;;;30.50;;
53483;SDS011;75581;50.088;19.966;2024-03-06T12:34:58;52.70;;;28.90;;
53483;SDS011;75581;50.088;19.966;2024-03-06T12:37:31;55.10;;;30.70;;
53483;SDS011;75581;50.088;19.966;2024-03-06T12:40:02;51.40;;;29.30;;
53483;SDS011;75581;50.088;19.966;2024-03-06T12:42:40;50.90;;;28.60;;
53483;SDS011;75581;50.088;19.966;2024-03-06T12:45:09;55.80;;;29.90;;
53483;SDS011;75581;50.088;19.966;2024-03-06T12:47:37;56.00;;;30.00;;
53483;SDS011;75581;50.088;19.966;2024-03-06T12:50:06;56.60;;;31.30;;
53483;SDS011;75581;50.088;19.966;2024-03-06T12:52:35;55.10;;;30.80;;
53483;SDS011;75581;50.088;19.966;2024-03-06T12:55:04;56.90;;;30.70;;
53483;SDS011;75581;50.088;19.966;2024-03-06T12:57:32;55.60;;;30.60;;
53483;SDS011;75581;50.088;19.966;2024-03-06T13:00:01;55.50;;;30.80;;
53483;SDS011;75581;50.088;19.966;2024-03-06T13:02:30;52.70;;;29.20;;
53483;SDS011;75581;50.088;19.966;2024-03-06T13:04:59;54.10;;;30.70;;
53483;SDS011;75581;50.088;19.966;2024-03-06T13:07:27;56.70;;;31.10;;
53483;SDS011;75581;50.088;19.966;2024-03-06T13:09:55;54.70;;;30.80;;
53483;SDS011;75581;50.088;19.966;2024-03-06T13:12:23;55.30;;;30.00;;
53483;SDS011;75581;50.088;19.966;2024-03-06T13:14:51;58.30;;;31.40;;
53483;SDS011;75581;50.088;19.966;2024-03-06T13:17:19;55.30;;;30.30;;
53483;SDS011;75581;50.088;19.966;2024-03-06T13:19:48;52.30;;;30.00;;
53483;SDS011;75581;50.088;19.966;2024-03-06T13:22:15;59.30;;;31.70;;
53483;SDS011;75581;50.088;19.966;2024-03-06T13:24:44;52.90;;;29.90;;
53483;SDS011;75581;50.088;19.966;2024-03-06T13:27:17;53.30;;;29.60;;
53483;SDS011;75581;50.088;19.966;2024-03-06T13:29:45;54.40;;;28.50;;
53483;SDS011;75581;50.088;19.966;2024-03-06T13:32:13;51.80;;;30.40;;
53483;SDS011;75581;50.088;19.966;2024-03-06T13:34:44;51.50;;;28.30;;
53483;SDS011;75581;50.088;19.966;2024-03-06T13:37:12;58.10;;;29.10;;
53483;SDS011;75581;50.088;19.966;2024-03-06T13:39:40;55.70;;;28.70;;
53483;SDS011;75581;50.088;19.966;2024-03-06T13:42:09;50.10;;;27.70;;
53483;SDS011;75581;50.088;19.966;2024-03-06T13:44:37;52.50;;;28.80;;
53483;SDS011;75581;50.088;19.966;2024-03-06T13:47:05;51.30;;;28.80;;
53483;SDS011;75581;50.088;19.966;2024-03-06T13:52:08;50.80;;;28.20;;
53483;SDS011;75581;50.088;19.966;2024-03-06T13:54:42;56.50;;;29.40;;
53483;SDS011;75581;50.088;19.966;2024-03-06T13:57:10;54.10;;;29.30;;
53483;SDS011;75581;50.088;19.966;2024-03-06T13:59:39;47.80;;;26.60;;
53483;SDS011;75581;50.088;19.966;2024-03-06T14:02:08;50.20;;;27.90;;
53483;SDS011;75581;50.088;19.966;2024-03-06T14:04:36;50.80;;;26.60;;
53483;SDS011;75581;50.088;19.966;2024-03-06T14:07:04;43.80;;;25.60;;
53483;SDS011;75581;50.088;19.966;2024-03-06T14:09:32;46.80;;;25.50;;
53483;SDS011;75581;50.088;19.966;2024-03-06T14:12:00;42.40;;;23.40;;
53483;SDS011;75581;50.088;19.966;2024-03-06T14:14:29;34.80;;;21.50;;
53483;SDS011;75581;50.088;19.966;2024-03-06T14:16:58;39.20;;;22.40;;
53483;SDS011;75581;50.088;19.966;2024-03-06T14:19:26;38.10;;;21.60;;
53483;SDS011;75581;50.088;19.966;2024-03-06T14:21:54;41.30;;;24.30;;
53483;SDS011;75581;50.088;19.966;2024-03-06T14:24:24;38.60;;;23.10;;
53483;SDS011;75581;50.088;19.966;2024-03-06T14:26:52;37.40;;;21.70;;
53483;SDS011;75581;50.088;19.966;2024-03-06T14:29:20;36.30;;;21.50;;
53483;SDS011;75581;50.088;19.966;2024-03-06T14:31:48;32.90;;;20.30;;
53483;SDS011;75581;50.088;19.966;2024-03-06T14:34:16;36.00;;;21.30;;
53483;SDS011;75581;50.088;19.966;2024-03-06T14:36:44;34.10;;;20.80;;
53483;SDS011;75581;50.088;19.966;2024-03-06T14:39:13;33.80;;;19.60;;
53483;SDS011;75581;50.088;19.966;2024-03-06T14:41:42;32.00;;;20.30;;
53483;SDS011;75581;50.088;19.966;2024-03-06T14:44:12;31.00;;;18.80;;
53483;SDS011;75581;50.088;19.966;2024-03-06T14:46:41;34.20;;;19.80;;
53483;SDS011;75581;50.088;19.966;2024-03-06T14:49:10;30.80;;;18.80;;
53483;SDS011;75581;50.088;19.966;2024-03-06T14:51:38;30.30;;;19.00;;
53483;SDS011;75581;50.088;19.966;2024-03-06T14:54:06;32.20;;;19.60;;
53483;SDS011;75581;50.088;19.966;2024-03-06T14:56:34;32.40;;;19.50;;
53483;SDS011;75581;50.088;19.966;2024-03-06T14:59:03;34.30;;;20.30;;
53483;SDS011;75581;50.088;19.966;2024-03-06T15:01:31;34.70;;;21.00;;
53483;SDS011;75581;50.088;19.966;2024-03-06T15:04:00;33.80;;;20.10;;
53483;SDS011;75581;50.088;19.966;2024-03-06T15:06:28;32.30;;;19.40;;
53483;SDS011;75581;50.088;19.966;2024-03-06T15:08:57;33.60;;;20.00;;